createdAt,value
2019-05-05T00:02:28.715Z,6.00
2019-05-05T00:05:00.141Z,3.77
2019-05-05T00:07:30.744Z,4.87
2019-05-05T00:10:00.502Z,7.07
2019-05-05T00:12:30.111Z,5.27
2019-05-05T00:15:07.500Z,4.27
2019-05-05T00:17:38.017Z,3.63
2019-05-05T00:20:09.219Z,5.87
2019-05-05T00:25:19.111Z,5.73
2019-05-05T00:27:48.843Z,5.93
2019-05-05T00:30:18.854Z,3.47
2019-05-05T00:32:48.671Z,3.47
2019-05-05T00:35:18.665Z,4.93
2019-05-05T00:37:48.470Z,3.00
2019-05-05T00:40:18.386Z,5.10
2019-05-05T00:42:48.029Z,6.23
2019-05-05T00:45:18.050Z,10.00
2019-05-05T00:48:01.556Z,3.57
2019-05-05T00:50:31.324Z,4.53
2019-05-05T00:53:01.004Z,6.50
2019-05-05T00:55:30.689Z,4.93
2019-05-05T00:58:00.354Z,7.40
2019-05-05T01:00:44.245Z,4.20
2019-05-05T01:03:15.323Z,5.07
2019-05-05T01:05:47.902Z,6.07
2019-05-05T01:08:20.337Z,5.97
2019-05-05T01:10:50.238Z,8.50
2019-05-05T01:13:20.138Z,11.00
2019-05-05T01:15:50.125Z,7.20
2019-05-05T01:18:20.008Z,6.57
2019-05-05T01:20:50.057Z,9.47
2019-05-05T01:23:19.971Z,6.67
2019-05-05T01:25:49.683Z,8.90
2019-05-05T01:28:19.646Z,8.93
2019-05-05T01:30:51.246Z,10.53
2019-05-05T01:33:25.178Z,9.93
2019-05-05T01:35:55.294Z,7.20
2019-05-05T01:38:26.772Z,8.03
2019-05-05T01:41:01.282Z,10.33
2019-05-05T01:43:31.126Z,8.70
2019-05-05T01:46:00.935Z,6.63
2019-05-05T01:48:30.831Z,8.13
2019-05-05T01:51:00.559Z,10.10
2019-05-05T01:53:30.407Z,6.00
2019-05-05T01:56:00.808Z,9.43
2019-05-05T01:58:30.819Z,10.70
2019-05-05T02:01:00.981Z,11.03
2019-05-05T02:03:30.959Z,7.97
2019-05-05T02:06:00.827Z,7.63
2019-05-05T02:08:30.833Z,7.10
2019-05-05T02:11:00.499Z,8.70
2019-05-05T02:13:30.219Z,8.00
2019-05-05T02:16:00.009Z,8.43
2019-05-05T02:18:29.743Z,5.67
2019-05-05T02:21:05.018Z,8.97
2019-05-05T02:23:36.531Z,7.87
2019-05-05T02:26:08.387Z,10.10
2019-05-05T02:28:54.934Z,7.53
2019-05-05T02:31:27.367Z,7.00
2019-05-05T02:33:57.216Z,7.50
2019-05-05T02:36:27.071Z,7.13
2019-05-05T02:38:56.982Z,10.77
2019-05-05T02:41:27.063Z,7.57
2019-05-05T02:43:58.077Z,8.03
2019-05-05T02:46:30.045Z,4.90
2019-05-05T02:49:05.289Z,6.03
2019-05-05T02:51:36.349Z,5.23
2019-05-05T02:54:06.618Z,5.53
2019-05-05T02:56:44.890Z,5.33
2019-05-05T02:59:19.329Z,6.33
2019-05-05T03:01:49.092Z,5.40
2019-05-05T03:04:20.014Z,7.03
2019-05-05T03:06:54.325Z,5.40
2019-05-05T03:09:28.674Z,7.23
2019-05-05T03:12:02.207Z,3.83
2019-05-05T03:14:36.642Z,5.53
2019-05-05T03:17:10.975Z,4.73
2019-05-05T03:19:41.454Z,6.43
2019-05-05T03:22:14.149Z,4.90
2019-05-05T03:24:44.690Z,5.80
2019-05-05T03:27:14.750Z,5.30
2019-05-05T03:29:44.547Z,5.57
2019-05-05T03:32:16.196Z,7.07
2019-05-05T03:34:46.049Z,6.83
2019-05-05T03:37:16.735Z,7.47
2019-05-05T03:39:48.695Z,5.70
2019-05-05T03:42:26.853Z,7.50
2019-05-05T03:44:58.472Z,7.87
2019-05-05T03:47:29.554Z,5.30
2019-05-05T03:49:59.674Z,6.17
2019-05-05T03:52:30.149Z,5.67
2019-05-05T03:55:00.257Z,8.10
2019-05-05T03:57:30.446Z,8.70
2019-05-05T04:00:00.250Z,7.73
2019-05-05T04:02:44.523Z,6.53
2019-05-05T04:05:16.363Z,7.67
2019-05-05T04:07:46.649Z,9.40
2019-05-05T04:10:16.542Z,5.90
2019-05-05T04:12:46.724Z,7.77
2019-05-05T04:15:16.806Z,9.07
2019-05-05T04:17:50.999Z,6.10
2019-05-05T04:20:20.423Z,7.17
2019-05-05T04:22:50.135Z,8.40
2019-05-05T04:25:19.843Z,6.87
2019-05-05T04:27:49.494Z,9.17
2019-05-05T04:30:19.309Z,8.57
2019-05-05T04:32:49.050Z,10.87
2019-05-05T04:35:20.559Z,13.97
2019-05-05T04:37:50.368Z,9.30
2019-05-05T04:40:20.046Z,7.73
2019-05-05T04:42:49.714Z,10.93
2019-05-05T04:45:19.654Z,7.57
2019-05-05T04:47:50.948Z,8.03
2019-05-05T04:50:20.383Z,12.40
2019-05-05T04:52:53.931Z,9.03
2019-05-05T04:55:24.467Z,11.03
2019-05-05T04:57:54.357Z,6.43
2019-05-05T05:00:24.219Z,8.67
2019-05-05T05:02:54.030Z,9.77
2019-05-05T05:05:31.089Z,10.77
2019-05-05T05:08:00.881Z,12.43
2019-05-05T05:10:30.708Z,9.97
2019-05-05T05:13:00.389Z,7.87
2019-05-05T05:15:30.192Z,10.00
2019-05-05T05:18:01.542Z,9.40
2019-05-05T05:20:31.180Z,15.67
2019-05-05T05:23:00.899Z,11.30
2019-05-05T05:25:30.578Z,11.87
2019-05-05T05:28:00.265Z,10.93
2019-05-05T05:30:30.043Z,8.30
2019-05-05T05:32:59.806Z,9.60
2019-05-05T05:35:29.449Z,7.53
2019-05-05T05:37:59.132Z,9.37
2019-05-05T05:40:44.406Z,7.53
2019-05-05T05:43:15.996Z,11.30
2019-05-05T05:45:54.144Z,8.93
2019-05-05T05:48:25.783Z,10.33
2019-05-05T05:50:57.401Z,8.23
2019-05-05T05:53:27.043Z,11.07
2019-05-05T05:55:56.891Z,9.40
2019-05-05T05:58:26.568Z,8.27
2019-05-05T06:00:58.030Z,11.00
2019-05-05T06:03:27.825Z,9.80
2019-05-05T06:05:57.549Z,7.73
2019-05-05T06:08:29.842Z,6.10
2019-05-05T06:10:58.751Z,10.37
2019-05-05T06:13:28.513Z,6.47
2019-05-05T06:15:58.381Z,10.63
2019-05-05T06:18:28.101Z,8.40
2019-05-05T06:20:57.819Z,7.97
2019-05-05T06:23:27.520Z,8.93
2019-05-05T06:25:57.357Z,10.60
2019-05-05T06:28:27.389Z,11.00
2019-05-05T06:30:57.145Z,9.37
2019-05-05T06:33:26.808Z,8.83
2019-05-05T06:35:56.587Z,10.43
2019-05-05T06:38:26.292Z,9.63
2019-05-05T06:41:04.194Z,9.93
2019-05-05T06:43:47.386Z,10.47
2019-05-05T06:46:18.694Z,9.60
2019-05-05T06:48:48.511Z,8.53
2019-05-05T06:51:18.237Z,13.70
2019-05-05T06:53:48.203Z,14.17
2019-05-05T06:56:18.065Z,11.07
2019-05-05T06:58:47.785Z,15.73
2019-05-05T07:01:17.620Z,10.60
2019-05-05T07:03:47.665Z,9.67
2019-05-05T07:06:17.452Z,11.50
2019-05-05T07:08:47.103Z,12.87
2019-05-05T07:11:16.905Z,14.73
2019-05-05T07:13:46.763Z,12.30
2019-05-05T07:16:17.851Z,13.67
2019-05-05T07:18:47.510Z,11.53
2019-05-05T07:21:17.417Z,17.67
2019-05-05T07:23:47.228Z,18.33
2019-05-05T07:26:17.184Z,12.97
2019-05-05T07:28:47.065Z,14.70
2019-05-05T07:31:16.805Z,21.67
2019-05-05T07:33:46.680Z,15.53
2019-05-05T07:36:34.120Z,18.13
2019-05-05T07:39:06.697Z,17.20
2019-05-05T07:41:36.862Z,18.73
2019-05-05T07:44:06.863Z,17.17
2019-05-05T07:46:36.617Z,14.97
2019-05-05T07:49:06.558Z,15.53
2019-05-05T07:51:36.503Z,19.03
2019-05-05T07:54:06.456Z,19.13
2019-05-05T07:56:36.192Z,19.10
2019-05-05T07:59:06.025Z,17.37
2019-05-05T08:01:35.829Z,18.87
2019-05-05T08:04:06.027Z,18.37
2019-05-05T08:06:35.721Z,16.67
2019-05-05T08:09:07.961Z,25.53
2019-05-05T08:11:37.613Z,15.87
2019-05-05T08:14:07.530Z,15.20
2019-05-05T08:16:38.978Z,17.80
2019-05-05T08:19:11.127Z,15.93
2019-05-05T08:21:41.041Z,18.00
2019-05-05T08:24:13.990Z,19.27
2019-05-05T08:26:48.599Z,24.10
2019-05-05T08:29:29.997Z,20.53
2019-05-05T08:32:16.810Z,16.60
2019-05-05T08:34:56.922Z,18.67
2019-05-05T08:37:18.022Z,13.93
2019-05-05T08:39:47.825Z,17.10
2019-05-05T08:42:17.748Z,15.47
2019-05-05T08:44:47.657Z,16.43
2019-05-05T08:47:17.434Z,14.37
2019-05-05T08:49:47.261Z,20.63
2019-05-05T08:52:17.180Z,16.30
2019-05-05T08:54:46.922Z,14.40
2019-05-05T08:57:16.755Z,20.90
2019-05-05T08:59:46.501Z,16.27
2019-05-05T09:02:16.253Z,15.83
2019-05-05T09:04:45.933Z,26.80
2019-05-05T09:07:15.780Z,16.67
2019-05-05T09:09:45.598Z,18.63
2019-05-05T09:12:15.256Z,17.83
2019-05-05T09:14:45.226Z,23.47
2019-05-05T09:17:15.044Z,16.07
2019-05-05T09:19:45.211Z,14.43
2019-05-05T09:22:15.285Z,23.07
2019-05-05T09:25:04.299Z,21.30
2019-05-05T09:27:41.681Z,15.43
2019-05-05T09:30:14.287Z,21.10
2019-05-05T09:32:44.205Z,19.23
2019-05-05T09:35:14.554Z,17.63
2019-05-05T09:37:44.866Z,15.13
2019-05-05T09:40:17.878Z,15.53
2019-05-05T09:42:47.607Z,18.40
2019-05-05T09:45:17.535Z,16.43
2019-05-05T09:47:47.341Z,22.17
2019-05-05T09:50:17.448Z,14.77
2019-05-05T09:52:47.156Z,21.20
2019-05-05T09:55:18.000Z,14.10
2019-05-05T09:57:47.899Z,20.30
2019-05-05T10:00:17.914Z,15.43
2019-05-05T10:02:47.796Z,14.03
2019-05-05T10:05:18.595Z,12.60
2019-05-05T10:07:48.712Z,17.50
2019-05-05T10:10:19.126Z,9.73
2019-05-05T10:12:52.055Z,20.90
2019-05-05T10:15:20.794Z,16.30
2019-05-05T10:17:50.504Z,20.00
2019-05-05T10:20:20.497Z,12.40
2019-05-05T10:22:50.245Z,14.33
2019-05-05T10:25:34.824Z,13.73
2019-05-05T10:28:04.774Z,13.83
2019-05-05T10:30:35.464Z,12.13
2019-05-05T10:33:05.304Z,15.23
2019-05-05T10:35:35.285Z,13.77
2019-05-05T10:38:05.801Z,10.13
2019-05-05T10:40:36.513Z,12.13
2019-05-05T10:43:06.619Z,11.13
2019-05-05T10:45:36.518Z,13.70
2019-05-05T10:48:06.452Z,9.50
2019-05-05T10:50:37.063Z,18.57
2019-05-05T10:53:06.749Z,13.30
2019-05-05T10:55:38.115Z,12.47
2019-05-05T10:58:09.697Z,10.10
2019-05-05T11:00:48.908Z,14.83
2019-05-05T11:03:21.090Z,11.60
2019-05-05T11:05:51.241Z,12.33
2019-05-05T11:08:21.344Z,12.43
2019-05-05T11:10:51.871Z,14.20
2019-05-05T11:13:23.870Z,15.43
2019-05-05T11:15:54.698Z,6.93
2019-05-05T11:18:24.801Z,15.70
2019-05-05T11:20:54.945Z,10.87
2019-05-05T11:23:25.068Z,12.90
2019-05-05T11:25:54.871Z,14.13
2019-05-05T11:28:24.731Z,8.60
2019-05-05T11:30:54.614Z,13.97
2019-05-05T11:33:26.040Z,12.13
2019-05-05T11:36:06.387Z,9.20
2019-05-05T11:38:36.235Z,8.33
2019-05-05T11:41:06.151Z,11.33
2019-05-05T11:43:36.053Z,9.37
2019-05-05T11:46:05.941Z,13.27
2019-05-05T11:48:36.036Z,8.90
2019-05-05T11:51:05.913Z,8.10
2019-05-05T11:53:35.685Z,7.90
2019-05-05T11:56:07.093Z,9.80
2019-05-05T11:58:36.737Z,12.43
2019-05-05T12:01:06.569Z,10.23
2019-05-05T12:03:37.930Z,8.40
2019-05-05T12:06:08.196Z,9.30
2019-05-05T12:08:38.080Z,8.93
2019-05-05T12:11:08.120Z,6.60
2019-05-05T12:13:38.074Z,13.30
2019-05-05T12:16:09.198Z,14.70
2019-05-05T12:18:39.214Z,10.57
2019-05-05T12:21:09.031Z,9.93
2019-05-05T12:23:39.916Z,7.77
2019-05-05T12:26:13.620Z,14.77
2019-05-05T12:28:44.510Z,11.83
2019-05-05T12:31:15.860Z,11.37
2019-05-05T12:33:45.736Z,12.73
2019-05-05T12:36:15.641Z,11.47
2019-05-05T12:38:45.328Z,11.00
2019-05-05T12:41:15.144Z,9.00
2019-05-05T12:43:45.185Z,10.67
2019-05-05T12:46:25.463Z,8.73
2019-05-05T12:48:56.830Z,8.23
2019-05-05T12:51:27.498Z,10.83
2019-05-05T12:53:57.559Z,13.80
2019-05-05T12:56:27.295Z,9.23
2019-05-05T12:58:57.289Z,7.80
2019-05-05T13:01:33.545Z,7.60
2019-05-05T13:04:03.625Z,7.47
2019-05-05T13:06:34.595Z,7.83
2019-05-05T13:09:07.373Z,5.00
2019-05-05T13:11:37.828Z,9.30
2019-05-05T13:14:07.928Z,12.30
2019-05-05T13:16:37.746Z,14.27
2019-05-05T13:19:09.275Z,7.50
2019-05-05T13:21:49.491Z,6.30
2019-05-05T13:24:36.932Z,7.77
2019-05-05T13:27:19.635Z,7.67
2019-05-05T13:29:48.702Z,9.90
2019-05-05T13:32:18.424Z,8.20
2019-05-05T13:34:48.127Z,7.83
2019-05-05T13:37:17.915Z,8.73
2019-05-05T13:39:47.840Z,8.53
2019-05-05T13:42:17.599Z,6.43
2019-05-05T13:44:49.980Z,9.40
2019-05-05T13:47:19.769Z,7.03
2019-05-05T13:49:51.208Z,6.30
2019-05-05T13:52:20.894Z,5.07
2019-05-05T13:54:50.648Z,6.50
2019-05-05T13:57:20.493Z,7.63
2019-05-05T13:59:50.181Z,6.63
2019-05-05T14:02:19.941Z,8.23
2019-05-05T14:04:49.781Z,8.37
2019-05-05T14:07:19.462Z,7.33
2019-05-05T14:09:49.258Z,8.03
2019-05-05T14:12:18.924Z,5.67
2019-05-05T14:14:48.611Z,7.17
2019-05-05T14:17:18.347Z,8.97
2019-05-05T14:20:01.152Z,8.70
2019-05-05T14:22:19.547Z,13.90
2019-05-05T14:24:50.900Z,11.37
2019-05-05T14:27:20.687Z,8.10
2019-05-05T14:29:52.025Z,8.83
2019-05-05T14:32:24.016Z,12.13
2019-05-05T14:34:55.573Z,7.37
2019-05-05T14:37:25.774Z,10.37
2019-05-05T14:39:55.750Z,8.60
2019-05-05T14:42:25.473Z,7.33
2019-05-05T14:44:55.231Z,7.23
2019-05-05T14:47:24.978Z,7.33
2019-05-05T14:49:54.829Z,7.77
2019-05-05T14:52:24.893Z,10.47
2019-05-05T14:54:54.800Z,13.07
2019-05-05T14:57:30.883Z,11.90
2019-05-05T15:00:00.662Z,6.93
2019-05-05T15:02:34.643Z,10.03
2019-05-05T15:05:05.809Z,10.73
2019-05-05T15:07:37.299Z,6.77
2019-05-05T15:10:11.440Z,7.73
2019-05-05T15:12:44.673Z,7.33
2019-05-05T15:15:15.032Z,5.20
2019-05-05T15:17:44.952Z,9.53
2019-05-05T15:20:20.122Z,9.33
2019-05-05T15:22:49.973Z,8.90
2019-05-05T15:25:19.899Z,10.70
2019-05-05T15:27:49.727Z,7.20
2019-05-05T15:30:20.000Z,7.40
2019-05-05T15:32:49.663Z,7.97
2019-05-05T15:35:20.814Z,6.17
2019-05-05T15:37:50.617Z,6.10
2019-05-05T15:40:20.671Z,9.50
2019-05-05T15:42:50.461Z,9.50
2019-05-05T15:45:20.339Z,6.40
2019-05-05T15:47:50.087Z,11.57
2019-05-05T15:50:20.773Z,7.37
2019-05-05T15:52:50.597Z,9.03
2019-05-05T15:55:20.399Z,10.30
2019-05-05T15:57:50.252Z,9.53
2019-05-05T16:00:20.517Z,9.60
2019-05-05T16:02:50.661Z,5.93
2019-05-05T16:05:20.672Z,6.97
2019-05-05T16:07:50.372Z,6.83
2019-05-05T16:10:22.635Z,9.20
2019-05-05T16:12:53.836Z,7.00
2019-05-05T16:15:32.025Z,11.97
2019-05-05T16:18:09.210Z,8.53
2019-05-05T16:20:40.496Z,7.13
2019-05-05T16:23:17.631Z,9.80
2019-05-05T16:25:47.486Z,8.00
2019-05-05T16:28:17.259Z,11.93
2019-05-05T16:30:47.259Z,12.50
2019-05-05T16:33:16.971Z,10.30
2019-05-05T16:35:46.759Z,12.23
2019-05-05T16:38:16.412Z,11.33
2019-05-05T16:40:46.958Z,9.13
2019-05-05T16:43:16.865Z,10.33
2019-05-05T16:45:46.642Z,7.47
2019-05-05T16:48:16.396Z,7.93
2019-05-05T16:50:46.047Z,7.30
2019-05-05T16:53:34.469Z,10.10
2019-05-05T16:56:14.112Z,13.27
2019-05-05T16:58:45.041Z,7.27
2019-05-05T17:01:16.601Z,6.50
2019-05-05T17:03:46.460Z,7.63
2019-05-05T17:06:16.131Z,16.57
2019-05-05T17:08:45.869Z,6.60
2019-05-05T17:11:15.687Z,11.10
2019-05-05T17:13:46.961Z,9.33
2019-05-05T17:16:35.345Z,8.30
2019-05-05T17:19:09.846Z,4.77
2019-05-05T17:21:45.137Z,6.10
2019-05-05T17:24:14.943Z,8.57
2019-05-05T17:26:44.748Z,6.27
2019-05-05T17:29:14.717Z,6.93
2019-05-05T17:31:44.662Z,12.47
2019-05-05T17:34:14.318Z,7.37
2019-05-05T17:36:45.269Z,15.73
2019-05-05T17:39:15.320Z,10.63
2019-05-05T17:41:44.783Z,12.63
2019-05-05T17:44:34.122Z,10.10
2019-05-05T17:47:21.383Z,9.57
2019-05-05T17:50:09.020Z,6.23
2019-05-05T17:52:53.758Z,8.93
2019-05-05T17:55:28.027Z,9.13
2019-05-05T17:58:02.145Z,13.10
2019-05-05T18:00:34.096Z,9.63
2019-05-05T18:03:04.405Z,8.60
2019-05-05T18:05:54.538Z,8.77
2019-05-05T18:08:38.244Z,9.20
2019-05-05T18:11:18.651Z,6.67
2019-05-05T18:13:54.348Z,7.17
2019-05-05T18:16:26.948Z,7.00
2019-05-05T18:18:56.952Z,5.80
2019-05-05T18:21:29.465Z,5.90
2019-05-05T18:23:58.457Z,13.17
2019-05-05T18:26:28.143Z,7.47
2019-05-05T18:28:57.850Z,11.37
2019-05-05T18:31:27.644Z,9.20
2019-05-05T18:33:57.365Z,7.77
2019-05-05T18:36:27.108Z,8.33
2019-05-05T18:38:56.771Z,5.90
2019-05-05T18:41:39.670Z,7.20
2019-05-05T18:44:17.981Z,9.53
2019-05-05T18:46:49.354Z,6.70
2019-05-05T18:49:19.040Z,5.43
2019-05-05T18:51:48.784Z,8.33
2019-05-05T18:54:18.439Z,7.70
2019-05-05T18:56:48.126Z,7.43
2019-05-05T18:59:17.792Z,5.93
2019-05-05T19:01:54.869Z,5.90
2019-05-05T19:04:26.429Z,9.50
2019-05-05T19:07:03.861Z,8.23
2019-05-05T19:09:33.956Z,9.07
2019-05-05T19:12:04.171Z,7.57
2019-05-05T19:14:34.996Z,8.67
2019-05-05T19:17:05.111Z,9.93
2019-05-05T19:19:35.297Z,9.23
2019-05-05T19:22:06.681Z,12.40
2019-05-05T19:24:36.379Z,6.27
2019-05-05T19:27:06.203Z,6.00
2019-05-05T19:29:35.868Z,6.50
2019-05-05T19:32:05.776Z,10.23
2019-05-05T19:34:35.585Z,8.43
2019-05-05T19:37:05.265Z,8.63
2019-05-05T19:39:35.016Z,9.17
2019-05-05T19:42:04.985Z,7.13
2019-05-05T19:44:34.724Z,5.20
2019-05-05T19:47:09.003Z,8.53
2019-05-05T19:49:40.310Z,9.80
2019-05-05T19:52:10.047Z,5.53
2019-05-05T19:54:39.755Z,12.13
2019-05-05T19:57:09.434Z,5.83
2019-05-05T19:59:39.098Z,8.13
2019-05-05T20:02:08.778Z,7.40
2019-05-05T20:04:38.536Z,5.87
2019-05-05T20:07:08.192Z,5.20
2019-05-05T20:09:37.874Z,4.23
2019-05-05T20:12:07.561Z,8.00
2019-05-05T20:14:37.407Z,10.07
2019-05-05T20:17:09.897Z,6.37
2019-05-05T20:19:41.229Z,5.67
2019-05-05T20:22:11.159Z,8.50
2019-05-05T20:24:40.907Z,8.03
2019-05-05T20:27:10.695Z,9.57
2019-05-05T20:29:40.354Z,6.87
2019-05-05T20:32:10.076Z,9.80
2019-05-05T20:34:50.335Z,5.53
2019-05-05T20:37:23.507Z,10.27
2019-05-05T20:39:54.439Z,7.80
2019-05-05T20:42:24.339Z,8.20
2019-05-05T20:44:54.495Z,6.60
2019-05-05T20:47:24.335Z,7.93
2019-05-05T20:49:54.169Z,8.33
2019-05-05T20:52:23.853Z,6.37
2019-05-05T20:54:53.864Z,6.97
2019-05-05T20:57:23.675Z,5.90
2019-05-05T20:59:53.359Z,7.70
2019-05-05T21:02:24.319Z,7.47
2019-05-05T21:04:54.256Z,6.53
2019-05-05T21:07:26.481Z,6.60
2019-05-05T21:09:55.409Z,6.87
2019-05-05T21:12:39.043Z,7.60
2019-05-05T21:14:56.490Z,9.03
2019-05-05T21:17:26.186Z,6.37
2019-05-05T21:19:56.108Z,7.13
2019-05-05T21:22:27.392Z,6.53
2019-05-05T21:24:58.290Z,9.27
2019-05-05T21:27:27.925Z,6.80
2019-05-05T21:29:57.738Z,7.00
2019-05-05T21:32:27.454Z,9.47
2019-05-05T21:34:57.258Z,12.70
2019-05-05T21:37:26.959Z,4.57
2019-05-05T21:39:56.622Z,8.23
2019-05-05T21:42:26.321Z,11.70
2019-05-05T21:44:56.053Z,6.43
2019-05-05T21:47:25.917Z,8.33
2019-05-05T21:49:55.584Z,7.47
2019-05-05T21:52:26.867Z,7.17
2019-05-05T21:55:00.898Z,8.00
2019-05-05T21:57:37.767Z,15.40
2019-05-05T22:00:10.940Z,10.23
2019-05-05T22:02:40.691Z,8.17
2019-05-05T22:05:10.904Z,7.70
2019-05-05T22:07:40.646Z,9.40
2019-05-05T22:10:10.574Z,7.40
2019-05-05T22:12:40.331Z,10.43
2019-05-05T22:15:10.337Z,10.03
2019-05-05T22:17:39.989Z,9.97
2019-05-05T22:20:20.317Z,8.00
2019-05-05T22:22:50.314Z,5.03
2019-05-05T22:25:20.116Z,9.23
2019-05-05T22:27:49.924Z,5.03
2019-05-05T22:30:19.797Z,5.63
2019-05-05T22:32:49.430Z,7.60
2019-05-05T22:35:19.360Z,9.17
2019-05-05T22:37:49.154Z,8.17
2019-05-05T22:40:24.349Z,10.40
2019-05-05T22:42:54.751Z,10.60
2019-05-05T22:45:24.693Z,7.83
2019-05-05T22:47:54.566Z,8.77
2019-05-05T22:50:24.836Z,10.57
2019-05-05T22:52:54.760Z,10.23
2019-05-05T22:55:24.894Z,7.60
2019-05-05T22:57:54.679Z,10.23
2019-05-05T23:00:29.297Z,9.00
2019-05-05T23:03:10.410Z,11.77
2019-05-05T23:05:43.837Z,9.40
2019-05-05T23:08:13.617Z,14.67
2019-05-05T23:10:43.815Z,9.57
2019-05-05T23:13:13.617Z,10.50
2019-05-05T23:15:44.916Z,12.53
2019-05-05T23:18:16.289Z,8.93
2019-05-05T23:21:08.594Z,8.03
2019-05-05T23:23:47.273Z,10.40
2019-05-05T23:26:18.573Z,8.17
2019-05-05T23:28:48.283Z,13.93
2019-05-05T23:31:18.026Z,7.70
2019-05-05T23:33:47.718Z,10.00
2019-05-05T23:36:17.408Z,9.90
2019-05-05T23:38:47.153Z,11.00
2019-05-05T23:41:16.904Z,10.70
2019-05-05T23:43:46.564Z,17.07
2019-05-05T23:46:16.253Z,17.33
2019-05-05T23:48:46.026Z,13.13
2019-05-05T23:51:15.751Z,13.30
2019-05-05T23:53:45.570Z,13.40
2019-05-05T23:56:15.293Z,14.60
2019-05-05T23:58:44.929Z,10.83
